Ipiiba, Brazil
Current Conditions -  °F | °C
As of 10:00 AM on Friday 31 Oct 2014 (Local Time) from SBRJ Reporting Station
Clear Clear  
Wind Chill: 90°   Ceiling: Unl
Heat Index: 96°   Visibility: 6mi
Dew Point: 72°   Wind: 8mph
Humidity: 55%   Direction: 360°N
Pressure: 29.88"   Gusts: NA
Location:  22.87°S, 42.95°W
Report Text: SBRJ 311200Z 36007KT CAVOK 32/22 Q1012
Loading
Personal Weather Stations






























Interactive Weather Map
Tropical Storm Tracking
New forecast layout! Learn more

10-Day Weather Forecast

Advertisements
Track Severe Weather on mobile